Saturday, November 18, 2017, 4:38 PM EST
Back to Local

KRMN, Stafford, Stafford Regional Airport

Location: Fredericksburg, VA, United States Lat: 38.398
Local Time: 4:38 PM EST (21:38 GMT) Lon: -77.455
Time Zone: US/Eastern Elev: 213 ft

Show me the last for .
Show Decoded

2017-11-18 16:15 METAR KRMN 182115Z AUTO 18008KT 10SM CLR 15/04 A2966 RMK AO2 T01500042 =
2017-11-18 15:55 METAR KRMN 182055Z AUTO 19006KT 10SM CLR 15/04 A2967 RMK AO2 T01510042 =
2017-11-18 15:35 METAR KRMN 182035Z AUTO 17006KT 10SM CLR 15/04 A2967 RMK AO2 T01540044 =
2017-11-18 15:15 METAR KRMN 182015Z AUTO 18009KT 10SM CLR 15/04 A2968 RMK AO2 T01470043 =
2017-11-18 14:55 METAR KRMN 181955Z AUTO 18009KT 10SM CLR 15/04 A2968 RMK AO2 T01460043 =
2017-11-18 14:35 METAR KRMN 181935Z AUTO 17009G15KT 10SM CLR 14/04 A2969 RMK AO2 T01390040 =
2017-11-18 14:15 METAR KRMN 181915Z AUTO 19004KT 10SM CLR 14/04 A2971 RMK AO2 T01350038 =
2017-11-18 13:55 METAR KRMN 181855Z AUTO 18005KT 10SM CLR 13/04 A2973 RMK AO2 T01330035 =
2017-11-18 13:35 METAR KRMN 181835Z AUTO 19004G15KT 10SM CLR 14/03 A2974 RMK AO2 T01360034 =
2017-11-18 13:15 METAR KRMN 181815Z AUTO 20011G19KT 160V230 10SM CLR 14/03 A2976 RMK AO2
                 T01370030 =
2017-11-18 12:55 METAR KRMN 181755Z AUTO 19010G17KT 10SM CLR 14/03 A2975 RMK AO2 T01360030 10145
                 21006 =
2017-11-18 12:35 METAR KRMN 181735Z AUTO 20011G16KT 160V230 10SM CLR 14/03 A2976 RMK AO2
                 T01440030 =
2017-11-18 12:15 METAR KRMN 181715Z AUTO 19012G21KT 160V230 10SM CLR 14/03 A2978 RMK AO2
                 T01360028 =
2017-11-18 11:55 METAR KRMN 181655Z AUTO 19012G22KT 160V230 10SM CLR 14/03 A2980 RMK AO2
                 T01350028 =
2017-11-18 11:35 METAR KRMN 181635Z AUTO 20014G21KT 170V230 10SM CLR 14/03 A2981 RMK AO2
                 T01370029 =
2017-11-18 11:15 METAR KRMN 181615Z AUTO 20011G18KT 10SM CLR 13/03 A2983 RMK AO2 T01300026 =
2017-11-18 10:55 METAR KRMN 181555Z AUTO 20010G15KT 10SM CLR 13/03 A2985 RMK AO2 T01250030 =
2017-11-18 10:35 METAR KRMN 181535Z AUTO 21009G16KT 10SM CLR 12/03 A2987 RMK AO2 T01150030 =
2017-11-18 10:15 METAR KRMN 181515Z AUTO 18007KT 10SM CLR 09/03 A2988 RMK AO2 T00940032 =
2017-11-18 09:55 METAR KRMN 181455Z AUTO 18005KT 10SM CLR 08/03 A2989 RMK AO2 T00750030 =
2017-11-18 09:35 METAR KRMN 181435Z AUTO 17005KT 10SM CLR 06/03 A2991 RMK AO2 T00600031 =
2017-11-18 09:15 METAR KRMN 181415Z AUTO 16006KT 10SM CLR 05/03 A2992 RMK AO2 T00500030 =
2017-11-18 08:55 METAR KRMN 181355Z AUTO 17004KT 10SM CLR 04/03 A2994 RMK AO2 T00410027 =
2017-11-18 08:35 METAR KRMN 181335Z AUTO 17003KT 10SM CLR 03/03 A2995 RMK AO2 T00340025 =
2017-11-18 08:15 METAR KRMN 181315Z AUTO 16003KT 10SM CLR 02/01 A2996 RMK AO2 T00190014 =
2017-11-18 07:55 METAR KRMN 181255Z AUTO 00000KT 10SM CLR 01/01 A2997 RMK AO2 T00080006 =
2017-11-18 07:35 METAR KRMN 181235Z AUTO 00000KT 10SM CLR 00/00 A2997 RMK AO2 T10031003 =
2017-11-18 07:15 METAR KRMN 181215Z AUTO 15003KT 10SM CLR 00/00 A2996 RMK AO2 T00000000 =
2017-11-18 06:55 METAR KRMN 181155Z AUTO 00000KT 10SM CLR 00/00 A2999 RMK AO2 T00000000 10000
                 21036 =
2017-11-18 06:35 METAR KRMN 181135Z AUTO 00000KT 10SM CLR 00/00 A3000 RMK AO2 T10051005 =
2017-11-18 06:15 METAR KRMN 181115Z AUTO 00000KT 10SM CLR M01/M01 A3000 RMK AO2 T10071007 =
2017-11-18 05:55 METAR KRMN 181055Z AUTO 00000KT 10SM CLR M02/M02 A3002 RMK AO2 T10221022 =
2017-11-18 05:35 METAR KRMN 181035Z AUTO 00000KT 10SM CLR M02/M02 A3001 RMK AO2 T10161016 =
2017-11-18 05:15 METAR KRMN 181015Z AUTO 00000KT 10SM CLR M02/M02 A3002 RMK AO2 T10161016 =
2017-11-18 04:55 METAR KRMN 180955Z AUTO 00000KT 10SM CLR M02/M02 A3004 RMK AO2 T10211021 =
2017-11-18 04:35 METAR KRMN 180935Z AUTO 00000KT 10SM CLR M02/M02 A3005 RMK AO2 T10201020 =
2017-11-18 04:15 METAR KRMN 180915Z AUTO 00000KT 10SM CLR M03/M03 A3006 RMK AO2 T10351035 =
2017-11-18 03:55 METAR KRMN 180855Z AUTO 00000KT 10SM CLR M02/M02 A3005 RMK AO2 T10181018 =
2017-11-18 03:35 METAR KRMN 180835Z AUTO 00000KT 10SM CLR M02/M02 A3006 RMK AO2 T10171017 =
2017-11-18 03:15 METAR KRMN 180815Z AUTO 00000KT 10SM CLR M01/M01 A3007 RMK AO2 T10111011 =
2017-11-18 02:55 METAR KRMN 180755Z AUTO 00000KT 10SM CLR M02/M02 A3007 RMK AO2 T10171017 =
2017-11-18 02:35 METAR KRMN 180735Z AUTO 00000KT 10SM CLR M03/M03 A3008 RMK AO2 T10351035 =
2017-11-18 02:15 METAR KRMN 180715Z AUTO 00000KT 10SM CLR M03/M03 A3008 RMK AO2 T10281028 =
2017-11-18 01:55 METAR KRMN 180655Z AUTO 00000KT 10SM CLR M03/M03 A3009 RMK AO2 T10271027 =
2017-11-18 01:35 METAR KRMN 180635Z AUTO 00000KT 10SM CLR M02/M02 A3010 RMK AO2 T10221022 =
2017-11-18 01:15 METAR KRMN 180615Z AUTO 00000KT 10SM CLR M03/M03 A3011 RMK AO2 T10271027 =
2017-11-18 00:55 METAR KRMN 180555Z AUTO 00000KT 10SM CLR M03/M03 A3012 RMK AO2 T10271027 10013
                 21030 401251030 =
2017-11-18 00:35 METAR KRMN 180535Z AUTO 00000KT 10SM CLR M02/M02 A3013 RMK AO2 T10211021 =
2017-11-18 00:15 METAR KRMN 180515Z AUTO 00000KT 10SM CLR M02/M02 A3013 RMK AO2 T10231023 =
2017-11-17 23:55 METAR KRMN 180455Z AUTO 00000KT 10SM CLR M02/M02 A3015 RMK AO2 T10191019 =
2017-11-17 23:35 METAR KRMN 180435Z AUTO 00000KT 10SM CLR M02/M02 A3015 RMK AO2 T10191019 =
2017-11-17 23:15 METAR KRMN 180415Z AUTO 00000KT 10SM CLR M01/M01 A3016 RMK AO2 T10131013 =
2017-11-17 22:55 METAR KRMN 180355Z AUTO 00000KT 10SM CLR M02/M02 A3017 RMK AO2 T10181018 =
2017-11-17 22:35 METAR KRMN 180335Z AUTO 00000KT 10SM CLR M01/M01 A3017 RMK AO2 T10151015 =
2017-11-17 22:15 METAR KRMN 180315Z AUTO 00000KT 10SM CLR M01/M01 A3017 RMK AO2 T10151015 =
2017-11-17 21:55 METAR KRMN 180255Z AUTO 00000KT 10SM CLR M01/M01 A3017 RMK AO2 T10141014 =
2017-11-17 21:35 METAR KRMN 180235Z AUTO 00000KT 10SM CLR M01/M01 A3017 RMK AO2 T10111011 =
2017-11-17 21:15 METAR KRMN 180215Z AUTO 00000KT 10SM CLR M01/M01 A3017 RMK AO2 T10141014 =
2017-11-17 20:55 METAR KRMN 180155Z AUTO 00000KT 10SM CLR M01/M01 A3017 RMK AO2 T10081008 =
2017-11-17 20:35 METAR KRMN 180135Z AUTO 00000KT 10SM CLR 00/00 A3017 RMK AO2 T10031003 =
2017-11-17 20:15 METAR KRMN 180115Z AUTO 00000KT 10SM CLR 00/00 A3017 RMK AO2 T00000000 =
2017-11-17 19:55 METAR KRMN 180055Z AUTO 00000KT 10SM CLR 00/00 A3018 RMK AO2 T00001003 =
2017-11-17 19:35 METAR KRMN 180035Z AUTO 00000KT 10SM CLR 01/00 A3018 RMK AO2 T00110000 =
2017-11-17 19:15 METAR KRMN 180015Z AUTO 00000KT 10SM CLR 01/00 A3018 RMK AO2 T00120001 =
2017-11-17 18:55 METAR KRMN 172355Z AUTO 00000KT 10SM CLR 02/00 A3019 RMK AO2 T00150000 10125
                 20015 =
2017-11-17 18:35 METAR KRMN 172335Z AUTO 00000KT 10SM CLR 03/M01 A3019 RMK AO2 T00341006 =
2017-11-17 18:15 METAR KRMN 172315Z AUTO 00000KT 10SM CLR 03/00 A3019 RMK AO2 T00320001 =
2017-11-17 17:55 METAR KRMN 172255Z AUTO 00000KT 10SM CLR 05/00 A3020 RMK AO2 T00471001 =
2017-11-17 17:35 METAR KRMN 172235Z AUTO 00000KT 10SM CLR 05/00 A3019 RMK AO2 T00471003 =
2017-11-17 17:15 METAR KRMN 172215Z AUTO 00000KT 10SM CLR 07/00 A3019 RMK AO2 T00681005 =
2017-11-17 16:55 METAR KRMN 172155Z AUTO 00000KT 10SM CLR 08/M01 A3018 RMK AO2 T00781010 =

Support USWX by starting your Amazon purchase here.